Time;durP1;ratioP1;P1;durP2;ratioP2;P2;SDS_P1;SDS_P2;PMS_P1;PMS_P2;Temp;Humidity;BMP_temperature;BMP_pressure;BME280_temperature;BME280_humidity;BME280_pressure;Samples;Min_cycle;Max_cycle;Signal;HPM_P1;HPM_P2
2023/05/18 00:01:39;;;;;;;8.60;1.50;;;;;;;8.01;56.97;101721.75;111273;1209;96091;-67
2023/05/18 00:04:06;;;;;;;14.50;2.90;;;;;;;7.97;57.08;101723.95;111167;1209;100041;-68
2023/05/18 00:06:32;;;;;;;11.60;2.40;;;;;;;7.94;57.18;101727.02;111086;1209;97576;-68
2023/05/18 00:08:58;;;;;;;5.70;1.50;;;;;;;7.92;57.21;101728.48;111051;1210;137579;-67
2023/05/18 00:11:23;;;;;;;18.20;3.70;;;;;;;7.89;57.28;101729.77;111186;1212;97676;-68
2023/05/18 00:13:48;;;;;;;6.10;1.40;;;;;;;7.86;57.32;101729.11;110903;1209;138567;-67
2023/05/18 00:16:14;;;;;;;9.70;1.70;;;;;;;7.83;57.29;101727.71;111023;1212;97663;-68
2023/05/18 00:18:40;;;;;;;7.70;1.90;;;;;;;7.82;57.44;101728.27;111044;1209;99166;-67
2023/05/18 00:21:07;;;;;;;8.60;1.90;;;;;;;7.81;57.49;101727.41;111093;1211;139821;-67
2023/05/18 00:23:33;;;;;;;10.20;2.00;;;;;;;7.78;57.47;101722.49;111030;1208;97690;-67
2023/05/18 00:26:00;;;;;;;10.90;2.70;;;;;;;7.75;57.67;101722.89;111023;1210;139273;-68
2023/05/18 00:28:25;;;;;;;18.00;2.90;;;;;;;7.74;57.70;101723.08;111055;1210;97884;-67
2023/05/18 00:30:51;;;;;;;8.90;1.40;;;;;;;7.71;57.60;101719.39;111075;1209;97652;-67
2023/05/18 00:33:17;;;;;;;8.70;1.80;;;;;;;7.66;57.79;101712.70;111144;1209;138981;-67
2023/05/18 00:35:42;;;;;;;9.20;1.90;;;;;;;7.63;57.84;101707.94;111006;1212;97688;-67
2023/05/18 00:38:07;;;;;;;19.30;2.50;;;;;;;7.59;58.00;101704.44;111002;1209;137397;-67
2023/05/18 00:40:33;;;;;;;7.90;1.90;;;;;;;7.58;57.89;101697.52;111133;1212;97726;-67
2023/05/18 00:42:59;;;;;;;6.20;1.90;;;;;;;7.55;57.98;101693.83;111161;1210;95037;-69
2023/05/18 00:45:25;;;;;;;9.50;2.80;;;;;;;7.51;57.99;101688.90;111001;1210;138883;-70
2023/05/18 00:47:51;;;;;;;6.70;1.40;;;;;;;7.47;58.04;101689.48;111295;1210;96497;-71
2023/05/18 00:50:17;;;;;;;6.40;1.60;;;;;;;7.44;58.13;101685.08;111004;1210;137613;-67
2023/05/18 00:52:43;;;;;;;10.80;1.90;;;;;;;7.41;58.11;101681.21;111159;1210;97732;-67
2023/05/18 00:55:11;;;;;;;8.20;1.70;;;;;;;7.38;58.05;101686.77;111064;1210;97660;-68
2023/05/18 00:57:37;;;;;;;17.10;2.60;;;;;;;7.33;58.16;101687.38;110966;1212;138970;-68
2023/05/18 01:00:06;;;;;;;10.20;1.90;;;;;;;7.30;58.14;101690.08;111183;1209;96240;-69
2023/05/18 01:02:31;;;;;;;10.00;1.50;;;;;;;7.27;58.02;101693.14;110994;1212;138726;-68
2023/05/18 01:04:59;;;;;;;5.30;1.50;;;;;;;7.24;58.09;101701.00;111030;1210;97658;-69
2023/05/18 01:07:25;;;;;;;11.60;1.80;;;;;;;7.22;58.19;101707.25;111074;1212;96554;-69
2023/05/18 01:09:52;;;;;;;10.70;2.00;;;;;;;7.21;58.16;101707.27;110947;1209;138452;-67
2023/05/18 01:12:24;;;;;;;5.80;1.50;;;;;;;7.20;58.30;101709.77;111060;1209;107024;-67
2023/05/18 01:15:09;;;;;;;6.70;1.70;;;;;;;7.21;58.36;101709.57;110883;1212;138952;-67
2023/05/18 01:17:42;;;;;;;5.20;1.10;;;;;;;7.20;58.30;101713.85;111122;1209;97660;-66
2023/05/18 01:20:37;;;;;;;13.00;1.40;;;;;;;7.19;58.40;101720.09;111018;1209;138159;-67
2023/05/18 01:23:41;;;;;;;5.30;1.10;;;;;;;7.17;58.37;101729.17;110976;1208;100349;-67
2023/05/18 01:26:15;;;;;;;9.70;2.50;;;;;;;7.13;58.41;101729.22;110827;1208;139884;-67
2023/05/18 01:28:45;;;;;;;7.10;2.30;;;;;;;7.10;58.41;101739.39;111044;1209;97580;-67
2023/05/18 01:31:11;;;;;;;7.10;1.60;;;;;;;7.08;58.44;101745.10;111081;1212;97688;-67
2023/05/18 01:33:37;;;;;;;5.00;1.70;;;;;;;7.05;58.47;101748.15;110905;1210;137479;-69
2023/05/18 01:36:02;;;;;;;9.10;2.20;;;;;;;6.99;58.40;101747.86;111129;1209;97692;-69
2023/05/18 01:38:28;;;;;;;12.60;1.90;;;;;;;6.95;58.61;101749.16;110848;1223;140249;-69
2023/05/18 01:41:25;;;;;;;10.40;2.10;;;;;;;6.93;58.53;101756.98;110976;1209;97651;-69
2023/05/18 01:44:22;;;;;;;3.80;1.40;;;;;;;6.90;58.57;101763.42;110922;1209;138002;-68
2023/05/18 01:47:07;;;;;;;10.10;1.70;;;;;;;6.88;58.76;101763.27;111056;1212;99975;-69
2023/05/18 01:50:03;;;;;;;7.10;2.10;;;;;;;6.86;58.80;101763.10;110949;1209;108122;-69
2023/05/18 01:52:43;;;;;;;9.50;1.70;;;;;;;6.85;58.66;101766.31;111114;1210;97695;-68
2023/05/18 01:55:12;;;;;;;11.70;1.70;;;;;;;6.83;58.80;101768.81;111088;1210;97577;-69
2023/05/18 01:57:41;;;;;;;8.30;1.90;;;;;;;6.82;58.83;101767.23;110897;1212;138243;-67
2023/05/18 02:00:09;;;;;;;6.30;1.30;;;;;;;6.81;58.88;101766.17;111064;1209;99737;-67
2023/05/18 02:02:34;;;;;;;7.10;1.60;;;;;;;6.80;58.87;101764.23;110916;1209;139817;-69
2023/05/18 02:05:00;;;;;;;4.20;1.20;;;;;;;6.78;58.92;101766.56;111042;1208;97661;-67
2023/05/18 02:07:25;;;;;;;11.70;2.00;;;;;;;6.75;59.07;101764.64;111134;1209;96832;-66
2023/05/18 02:09:51;;;;;;;12.60;2.20;;;;;;;6.73;59.00;101761.64;110931;1209;139081;-68
2023/05/18 02:12:16;;;;;;;14.60;2.00;;;;;;;6.70;58.95;101763.26;111094;1209;97666;-68
2023/05/18 02:14:41;;;;;;;7.00;1.90;;;;;;;6.68;59.16;101762.93;111026;1209;137762;-68
2023/05/18 02:17:07;;;;;;;10.10;2.10;;;;;;;6.64;59.17;101768.83;111159;1212;97687;-67
2023/05/18 02:19:32;;;;;;;9.00;1.80;;;;;;;6.61;59.06;101769.39;111121;1209;96141;-67
2023/05/18 02:21:58;;;;;;;14.50;2.30;;;;;;;6.58;59.17;101769.77;110930;1212;138441;-67
2023/05/18 02:24:24;;;;;;;16.30;1.90;;;;;;;6.55;59.30;101774.77;111110;1212;96338;-67
2023/05/18 02:26:50;;;;;;;14.40;2.00;;;;;;;6.51;59.26;101777.83;111082;1210;138124;-68
2023/05/18 02:29:16;;;;;;;8.40;1.50;;;;;;;6.48;59.38;101773.05;111202;1210;107801;-67
2023/05/18 02:31:41;;;;;;;9.80;2.20;;;;;;;6.44;59.41;101770.95;111136;1209;97675;-67
2023/05/18 02:34:07;;;;;;;7.40;1.70;;;;;;;6.41;59.29;101768.33;111084;1212;138686;-69
2023/05/18 02:36:38;;;;;;;17.10;2.60;;;;;;;6.37;59.56;101770.84;111061;1212;99914;-67
2023/05/18 02:39:04;;;;;;;11.90;2.00;;;;;;;6.32;59.41;101768.92;111033;1212;138736;-67
2023/05/18 02:41:29;;;;;;;12.40;1.90;;;;;;;6.29;59.56;101769.48;111024;1209;98477;-67
2023/05/18 02:43:55;;;;;;;16.00;2.90;;;;;;;6.28;59.61;101770.20;110958;1208;140046;-66
2023/05/18 02:46:20;;;;;;;22.90;2.80;;;;;;;6.26;59.73;101775.89;111077;1209;97647;-67
2023/05/18 02:48:46;;;;;;;14.30;2.30;;;;;;;6.24;59.57;101780.00;111049;1210;96516;-67
2023/05/18 02:51:11;;;;;;;12.10;3.00;;;;;;;6.22;59.73;101778.05;110996;1212;138858;-66
2023/05/18 02:53:36;;;;;;;6.00;1.80;;;;;;;6.20;59.81;101778.41;111019;1209;96232;-67
2023/05/18 02:56:02;;;;;;;9.80;2.20;;;;;;;6.19;59.86;101781.80;110808;1212;139752;-67
2023/05/18 02:58:28;;;;;;;13.30;2.30;;;;;;;6.19;59.81;101782.70;110917;1212;97693;-67
2023/05/18 03:00:54;;;;;;;14.80;2.40;;;;;;;6.16;59.85;101780.23;111257;1209;97584;-67
2023/05/18 03:03:20;;;;;;;2.80;1.70;;;;;;;6.14;60.05;101783.61;110876;1212;139625;-67
2023/05/18 03:05:45;;;;;;;12.40;2.70;;;;;;;6.12;60.17;101785.58;111065;1209;108397;-67
2023/05/18 03:08:10;;;;;;;11.50;1.80;;;;;;;6.10;60.13;101787.72;110969;1212;139497;-67
2023/05/18 03:10:36;;;;;;;8.20;1.80;;;;;;;6.08;60.29;101788.27;111176;1210;96166;-67
2023/05/18 03:13:02;;;;;;;10.70;2.00;;;;;;;6.06;60.36;101790.41;111070;1212;97659;-67
2023/05/18 03:15:30;;;;;;;9.30;1.80;;;;;;;6.04;60.56;101795.04;111163;1209;140698;-67
2023/05/18 03:17:58;;;;;;;10.90;2.10;;;;;;;6.00;60.40;101798.42;111098;1208;97692;-67
2023/05/18 03:20:25;;;;;;;12.60;2.40;;;;;;;5.97;60.53;101801.30;110887;1212;139429;-67
2023/05/18 03:22:51;;;;;;;15.00;2.40;;;;;;;5.95;60.63;101799.17;111060;1209;97686;-68
2023/05/18 03:25:16;;;;;;;15.40;2.60;;;;;;;5.94;60.64;101799.36;111158;1208;97664;-67
2023/05/18 03:27:41;;;;;;;15.70;1.90;;;;;;;5.92;60.72;101798.66;110933;1212;138379;-67
2023/05/18 03:30:07;;;;;;;11.30;2.20;;;;;;;5.90;60.69;101805.05;111052;1210;97722;-67
2023/05/18 03:32:33;;;;;;;11.60;2.00;;;;;;;5.87;60.74;101806.10;111078;1210;138757;-67
2023/05/18 03:34:59;;;;;;;10.80;2.40;;;;;;;5.85;60.92;101806.83;111130;1209;98055;-68
2023/05/18 03:37:25;;;;;;;8.80;2.20;;;;;;;5.84;61.03;101807.36;110986;1210;97680;-67
2023/05/18 03:39:50;;;;;;;11.80;2.30;;;;;;;5.84;61.13;101810.02;110969;1212;139320;-67
2023/05/18 03:42:16;;;;;;;17.70;2.30;;;;;;;5.85;61.14;101809.48;111134;1209;107698;-67
2023/05/18 03:44:41;;;;;;;11.70;2.10;;;;;;;5.83;61.20;101813.92;110973;1212;138930;-67
2023/05/18 03:47:07;;;;;;;7.30;1.50;;;;;;;5.82;61.43;101813.58;111184;1208;96248;-67
2023/05/18 03:49:33;;;;;;;10.40;2.30;;;;;;;5.82;61.47;101814.29;111019;1212;97753;-67
2023/05/18 03:51:59;;;;;;;18.90;3.20;;;;;;;5.82;61.65;101814.29;111020;1209;138903;-68
2023/05/18 03:54:24;;;;;;;12.80;1.80;;;;;;;5.83;61.65;101816.41;111046;1212;98053;-67
2023/05/18 03:56:49;;;;;;;19.10;2.20;;;;;;;5.83;61.64;101815.70;110977;1207;139305;-67
2023/05/18 03:59:15;;;;;;;14.20;2.70;;;;;;;5.83;61.68;101820.30;111013;1212;97623;-67
2023/05/18 04:01:41;;;;;;;10.80;3.40;;;;;;;5.84;61.84;101825.27;111108;1209;97631;-67
2023/05/18 04:04:16;;;;;;;13.30;2.50;;;;;;;5.86;61.82;101832.17;110911;1212;138557;-67
2023/05/18 04:06:45;;;;;;;10.40;2.60;;;;;;;5.88;61.89;101829.88;111054;1209;97657;-67
2023/05/18 04:09:13;;;;;;;14.00;2.70;;;;;;;5.89;61.97;101831.66;110968;1208;139429;-67
2023/05/18 04:11:39;;;;;;;10.70;2.40;;;;;;;5.88;61.78;101832.36;111105;1210;99348;-67
2023/05/18 04:14:04;;;;;;;7.10;1.80;;;;;;;5.90;61.86;101836.27;110978;1209;139775;-67
2023/05/18 04:16:29;;;;;;;15.50;2.00;;;;;;;5.91;62.01;101840.17;111096;1208;96505;-67
2023/05/18 04:18:55;;;;;;;12.20;2.40;;;;;;;5.93;62.05;101843.00;111081;1210;97609;-68
2023/05/18 04:21:20;;;;;;;11.70;2.90;;;;;;;5.96;62.18;101844.77;111062;1212;138412;-67
2023/05/18 04:23:46;;;;;;;7.50;2.30;;;;;;;5.98;62.19;101847.77;111044;1212;97615;-67
2023/05/18 04:26:11;;;;;;;11.20;2.50;;;;;;;6.01;62.17;101849.70;110989;1210;138565;-68
2023/05/18 04:28:37;;;;;;;16.70;3.00;;;;;;;6.05;62.26;101854.29;111172;1212;97741;-68
2023/05/18 04:31:02;;;;;;;7.60;2.20;;;;;;;6.08;62.29;101853.92;111056;1208;97603;-68
2023/05/18 04:33:28;;;;;;;16.40;2.50;;;;;;;6.10;62.43;101859.05;110952;1212;138115;-68
2023/05/18 04:35:54;;;;;;;7.50;2.40;;;;;;;6.14;62.45;101864.36;111080;1212;96203;-68
2023/05/18 04:38:22;;;;;;;12.10;2.80;;;;;;;6.19;62.37;101868.77;110916;1212;138499;-68
2023/05/18 04:40:49;;;;;;;10.70;2.20;;;;;;;6.23;62.43;101868.73;111179;1209;107473;-68
2023/05/18 04:43:16;;;;;;;11.90;2.50;;;;;;;6.29;62.44;101869.25;111110;1208;97656;-68
2023/05/18 04:45:45;;;;;;;13.90;1.90;;;;;;;6.34;62.41;101875.42;110919;1208;139035;-68
2023/05/18 04:48:10;;;;;;;19.90;3.00;;;;;;;6.38;62.41;101873.27;111195;1212;111036;-68
2023/05/18 04:50:36;;;;;;;17.00;1.80;;;;;;;6.42;62.53;101875.20;110913;1209;138736;-68
2023/05/18 04:53:02;;;;;;;14.00;2.20;;;;;;;6.46;62.61;101875.52;111148;1210;97699;-68
2023/05/18 04:55:29;;;;;;;16.70;2.90;;;;;;;6.51;62.67;101882.95;110919;1210;97595;-67
2023/05/18 04:57:55;;;;;;;16.40;2.20;;;;;;;6.59;62.76;101884.14;110934;1209;138838;-67
2023/05/18 05:00:25;;;;;;;9.50;2.40;;;;;;;6.65;62.71;101881.60;110923;1210;97683;-67
2023/05/18 05:02:50;;;;;;;8.10;2.10;;;;;;;6.68;62.66;101882.46;110928;1210;138201;-67
2023/05/18 05:05:16;;;;;;;14.30;2.30;;;;;;;6.72;62.82;101886.52;111056;1208;98253;-67
2023/05/18 05:07:41;;;;;;;13.30;2.70;;;;;;;6.78;62.79;101886.12;111128;1212;97691;-69
2023/05/18 05:10:07;;;;;;;14.90;2.70;;;;;;;6.84;62.78;101889.80;110929;1212;137290;-67
2023/05/18 05:12:36;;;;;;;6.30;2.60;;;;;;;6.91;62.85;101886.19;111108;1210;98108;-67
2023/05/18 05:15:02;;;;;;;12.00;2.70;;;;;;;6.97;62.83;101891.13;111030;1209;137878;-67
2023/05/18 05:17:27;;;;;;;17.20;3.30;;;;;;;7.02;62.87;101888.93;111070;1212;97739;-67
2023/05/18 05:19:52;;;;;;;13.90;3.00;;;;;;;7.10;62.88;101885.30;110978;1208;138003;-66
2023/05/18 05:22:18;;;;;;;11.00;2.30;;;;;;;7.19;62.93;101884.16;111029;1208;98002;-67
2023/05/18 05:24:44;;;;;;;14.40;2.60;;;;;;;7.29;62.91;101883.35;111082;1212;97710;-67
2023/05/18 05:27:09;;;;;;;11.50;2.40;;;;;;;7.37;62.89;101884.68;110965;1209;139746;-67
2023/05/18 05:29:34;;;;;;;13.30;2.70;;;;;;;7.45;62.84;101881.05;110933;1208;97605;-67
2023/05/18 05:32:00;;;;;;;21.10;2.50;;;;;;;7.54;62.88;101885.04;110938;1212;140349;-67
2023/05/18 05:34:25;;;;;;;10.90;2.60;;;;;;;7.63;62.88;101888.31;110962;1212;97638;-66
2023/05/18 05:36:50;;;;;;;7.80;1.40;;;;;;;7.71;62.88;101887.69;110972;1210;97677;-69
2023/05/18 05:39:15;;;;;;;11.60;1.70;;;;;;;7.79;62.72;101888.65;110815;1212;139012;-67
2023/05/18 05:41:40;;;;;;;9.60;2.00;;;;;;;7.88;62.69;101892.60;110915;1210;97619;-66
2023/05/18 05:44:06;;;;;;;5.60;1.70;;;;;;;7.97;62.67;101891.24;110829;1212;138431;-67
2023/05/18 05:46:31;;;;;;;9.40;2.10;;;;;;;8.07;62.62;101888.45;110942;1209;98086;-67
2023/05/18 05:48:56;;;;;;;11.30;2.50;;;;;;;8.14;62.46;101890.13;110918;1210;97714;-67
2023/05/18 05:51:22;;;;;;;13.90;3.00;;;;;;;8.23;62.44;101892.52;110753;1212;138090;-67
2023/05/18 05:53:48;;;;;;;7.50;1.90;;;;;;;8.32;62.31;101895.60;110790;1209;97652;-67
2023/05/18 05:56:13;;;;;;;7.80;1.80;;;;;;;8.43;62.09;101897.08;110768;1208;137776;-67
2023/05/18 05:58:41;;;;;;;7.20;2.40;;;;;;;8.51;62.09;101896.59;111313;1212;96380;-68
2023/05/18 06:01:07;;;;;;;10.50;1.70;;;;;;;8.58;61.88;101899.16;111051;1208;97652;-66
2023/05/18 06:03:32;;;;;;;10.40;2.00;;;;;;;8.61;61.71;101901.79;110753;1208;137451;-66
2023/05/18 06:05:58;;;;;;;6.50;1.20;;;;;;;8.62;61.50;101903.20;110911;1209;107743;-66
2023/05/18 06:08:23;;;;;;;6.20;1.40;;;;;;;8.65;61.40;101901.72;110956;1209;138189;-68
2023/05/18 06:10:48;;;;;;;8.40;1.10;;;;;;;8.69;61.23;101898.09;111097;1212;97680;-66
2023/05/18 06:13:15;;;;;;;8.10;1.80;;;;;;;8.69;61.00;101900.06;111011;1212;97587;-67
2023/05/18 06:15:40;;;;;;;6.40;1.70;;;;;;;8.72;60.99;101898.95;112834;1208;138449;-67
2023/05/18 06:18:05;;;;;;;7.80;2.00;;;;;;;8.75;61.00;101898.54;111532;1208;96205;-68
2023/05/18 06:20:31;;;;;;;6.90;2.00;;;;;;;8.79;60.96;101896.70;110795;1210;138214;-68
2023/05/18 06:22:56;;;;;;;8.60;1.70;;;;;;;8.86;60.88;101894.28;111061;1209;97676;-68
2023/05/18 06:25:23;;;;;;;6.80;1.80;;;;;;;8.93;60.78;101895.94;110924;1212;97607;-67
2023/05/18 06:27:48;;;;;;;7.90;1.50;;;;;;;8.98;60.70;101897.81;111010;1210;138262;-67
2023/05/18 06:30:13;;;;;;;5.90;1.30;;;;;;;9.02;60.61;101893.64;110958;1210;98102;-67
2023/05/18 06:32:39;;;;;;;5.70;1.60;;;;;;;9.08;60.57;101896.91;110857;1208;138567;-67
2023/05/18 06:35:05;;;;;;;9.00;1.30;;;;;;;9.15;60.49;101900.19;111009;1212;97717;-67
2023/05/18 06:37:31;;;;;;;6.30;1.50;;;;;;;9.23;60.48;101897.38;111754;1208;97390;-67
2023/05/18 06:39:57;;;;;;;9.10;1.70;;;;;;;9.31;60.43;101901.16;110788;1212;137877;-66
2023/05/18 06:42:22;;;;;;;9.80;1.50;;;;;;;9.41;60.42;101902.58;110945;1212;97639;-67
2023/05/18 06:44:49;;;;;;;6.90;1.30;;;;;;;9.51;60.24;101900.25;110982;1208;137519;-67
2023/05/18 06:47:15;;;;;;;6.40;0.90;;;;;;;9.62;60.27;101900.56;111035;1208;111374;-67
2023/05/18 06:49:41;;;;;;;6.60;1.50;;;;;;;9.73;60.01;101900.52;111005;1212;97618;-66
2023/05/18 06:52:08;;;;;;;5.20;0.90;;;;;;;9.79;59.63;101900.42;111062;1208;137435;-67
2023/05/18 06:54:34;;;;;;;7.50;1.50;;;;;;;9.82;59.44;101901.27;110887;1210;97887;-67
2023/05/18 06:57:00;;;;;;;9.30;1.50;;;;;;;9.86;59.36;101907.59;110709;1212;139455;-68
2023/05/18 06:59:25;;;;;;;7.90;1.30;;;;;;;9.91;59.21;101911.05;110743;1208;97701;-66
2023/05/18 07:01:50;;;;;;;7.40;1.40;;;;;;;9.93;58.93;101910.66;110549;1208;139303;-66
2023/05/18 07:04:18;;;;;;;9.50;1.10;;;;;;;9.97;58.84;101913.45;110685;1209;97667;-67
2023/05/18 07:06:44;;;;;;;2.90;0.90;;;;;;;10.06;58.93;101911.10;110675;1208;97574;-69
2023/05/18 07:09:09;;;;;;;6.80;1.10;;;;;;;10.20;58.63;101911.19;110713;1208;138347;-67
2023/05/18 07:11:34;;;;;;;4.70;0.80;;;;;;;10.24;58.37;101911.64;110547;1212;97793;-65
2023/05/18 07:13:59;;;;;;;8.00;1.10;;;;;;;10.27;58.14;101908.02;110650;1208;138555;-65
2023/05/18 07:16:26;;;;;;;4.10;0.80;;;;;;;10.34;57.83;101911.06;111023;1211;97975;-66
2023/05/18 07:18:51;;;;;;;5.60;0.80;;;;;;;10.39;57.31;101911.15;110961;1208;97666;-66
2023/05/18 07:21:17;;;;;;;2.80;0.70;;;;;;;10.39;56.89;101914.00;110974;1212;138126;-66
2023/05/18 07:23:42;;;;;;;1.60;0.50;;;;;;;10.41;56.75;101916.95;110843;1212;111612;-66
2023/05/18 07:26:10;;;;;;;6.20;0.80;;;;;;;10.47;56.58;101911.27;110818;1209;138703;-65
2023/05/18 07:28:36;;;;;;;1.20;0.80;;;;;;;10.54;56.37;101912.38;111001;1209;97592;-66
2023/05/18 07:31:02;;;;;;;5.30;1.00;;;;;;;10.61;56.26;101903.80;111286;1209;97385;-67
2023/05/18 07:33:27;;;;;;;3.60;1.00;;;;;;;10.63;55.94;101902.14;110833;1212;137802;-66
2023/05/18 07:35:53;;;;;;;2.90;0.90;;;;;;;10.64;55.63;101903.19;110975;1208;97598;-67
2023/05/18 07:38:18;;;;;;;2.20;0.90;;;;;;;10.66;55.52;101901.89;111014;1212;138450;-66
2023/05/18 07:40:43;;;;;;;8.60;1.10;;;;;;;10.69;55.18;101897.70;110899;1212;96544;-65
2023/05/18 07:43:09;;;;;;;8.80;1.40;;;;;;;10.75;55.21;101898.83;110861;1211;98212;-65
2023/05/18 07:45:34;;;;;;;7.40;1.30;;;;;;;10.89;55.34;101896.52;110719;1208;138979;-65
2023/05/18 07:48:00;;;;;;;5.20;1.30;;;;;;;11.03;55.20;101898.14;111090;1208;97680;-65
2023/05/18 07:50:25;;;;;;;6.30;1.00;;;;;;;11.13;55.25;101900.92;110988;1208;140573;-64
2023/05/18 07:52:51;;;;;;;2.40;0.80;;;;;;;11.24;54.94;101903.67;110797;1212;97647;-65
2023/05/18 07:55:16;;;;;;;5.20;0.80;;;;;;;11.33;54.87;101905.94;110549;1208;96340;-65
2023/05/18 07:57:41;;;;;;;5.50;0.80;;;;;;;11.33;54.53;101906.46;110594;1212;138659;-65
2023/05/18 08:00:08;;;;;;;2.60;0.80;;;;;;;11.31;54.51;101901.88;110553;1209;96694;-64
2023/05/18 08:02:34;;;;;;;1.90;0.80;;;;;;;11.38;54.44;101900.27;111167;1212;138113;-64
2023/05/18 08:05:00;;;;;;;4.00;1.00;;;;;;;11.45;54.26;101898.11;110590;1212;97596;-65
2023/05/18 08:07:25;;;;;;;3.70;1.00;;;;;;;11.53;54.13;101901.99;110609;1208;96301;-65
2023/05/18 08:09:51;;;;;;;5.10;1.10;;;;;;;11.59;53.83;101898.25;110408;1212;138658;-64
2023/05/18 08:12:16;;;;;;;3.90;0.90;;;;;;;11.67;53.91;101898.56;110762;1208;97590;-65
2023/05/18 08:14:41;;;;;;;6.60;0.90;;;;;;;11.77;53.07;101901.17;110591;1211;138795;-64
2023/05/18 08:17:06;;;;;;;3.00;1.00;;;;;;;11.78;52.75;101904.20;110791;1208;97565;-65
2023/05/18 08:19:32;;;;;;;4.80;1.30;;;;;;;11.81;52.89;101903.05;110601;1212;100660;-64
2023/05/18 08:21:57;;;;;;;2.80;0.70;;;;;;;11.88;52.80;101903.92;110507;1212;140572;-67
2023/05/18 08:24:22;;;;;;;1.60;0.70;;;;;;;11.94;52.50;101908.58;110598;1212;99488;-67
2023/05/18 08:26:48;;;;;;;6.50;0.90;;;;;;;11.92;52.20;101894.13;110433;1208;138210;-66
2023/05/18 08:29:13;;;;;;;6.80;0.90;;;;;;;11.93;52.12;101898.58;110555;1211;98216;-65
2023/05/18 08:31:39;;;;;;;6.80;0.60;;;;;;;12.00;51.83;101896.59;110589;1210;97667;-65
2023/05/18 08:34:06;;;;;;;1.70;0.60;;;;;;;12.03;51.66;101894.88;110429;1214;137442;-64
2023/05/18 08:36:33;;;;;;;4.60;1.60;;;;;;;12.06;51.71;101888.70;110643;1212;98306;-67
2023/05/18 08:38:59;;;;;;;3.50;1.00;;;;;;;12.20;51.86;101891.34;110516;1212;138573;-66
2023/05/18 08:41:53;;;;;;;3.20;0.70;;;;;;;12.34;51.76;101892.69;110852;1209;97670;-66
2023/05/18 08:44:25;;;;;;;0.70;0.70;;;;;;;12.30;51.34;101889.23;110682;1212;138686;-66
2023/05/18 08:46:51;;;;;;;2.90;0.70;;;;;;;12.23;51.20;101883.70;110471;1212;111715;-61
2023/05/18 08:49:19;;;;;;;3.20;0.60;;;;;;;12.27;51.37;101883.23;110647;1208;99113;-62
2023/05/18 08:51:47;;;;;;;4.70;0.60;;;;;;;12.41;51.15;101887.30;110475;1212;137932;-62
2023/05/18 08:54:19;;;;;;;2.10;0.60;;;;;;;12.47;50.69;101889.41;110623;1208;97710;-62
2023/05/18 08:56:46;;;;;;;7.30;0.80;;;;;;;12.44;50.54;101889.15;110423;1208;137735;-62
2023/05/18 08:59:13;;;;;;;1.80;0.50;;;;;;;12.49;50.57;101886.13;110564;1209;99207;-63
2023/05/18 09:01:39;;;;;;;2.50;0.70;;;;;;;12.52;50.43;101886.75;110572;1208;98014;-62
2023/05/18 09:04:04;;;;;;;4.00;0.60;;;;;;;12.54;50.20;101891.15;110704;1212;139154;-61
2023/05/18 09:06:31;;;;;;;6.00;1.00;;;;;;;12.45;49.65;101878.89;110663;1212;96228;-62
2023/05/18 09:08:57;;;;;;;2.80;0.50;;;;;;;12.39;49.56;101876.95;110498;1210;138104;-61
2023/05/18 09:11:24;;;;;;;4.00;0.70;;;;;;;12.45;49.65;101880.52;110570;1208;98335;-61
2023/05/18 09:13:50;;;;;;;6.60;1.30;;;;;;;12.46;49.33;101877.60;110524;1210;139747;-62
2023/05/18 09:16:16;;;;;;;3.50;1.20;;;;;;;12.46;49.45;101878.15;110779;1208;96293;-62
2023/05/18 09:18:42;;;;;;;9.70;1.80;;;;;;;12.57;49.76;101876.36;110638;1208;111961;-62
2023/05/18 09:21:08;;;;;;;1.80;0.60;;;;;;;12.68;49.59;101872.42;110473;1210;138037;-63
2023/05/18 09:23:34;;;;;;;3.70;0.80;;;;;;;12.62;49.42;101868.13;110653;1212;97710;-63
2023/05/18 09:25:59;;;;;;;5.10;0.70;;;;;;;12.64;49.60;101871.10;110577;1210;138707;-63
2023/05/18 09:28:35;;;;;;;0.90;0.60;;;;;;;12.75;49.71;101870.40;110895;1208;97717;-63
2023/05/18 09:31:00;;;;;;;3.70;0.70;;;;;;;12.87;49.69;101867.15;110860;1212;99092;-63
2023/05/18 09:33:32;;;;;;;3.90;0.70;;;;;;;12.92;49.40;101863.92;110522;1208;139565;-63
2023/05/18 09:35:58;;;;;;;3.10;1.00;;;;;;;12.79;49.25;101861.12;110710;1212;97705;-63
2023/05/18 09:38:23;;;;;;;5.60;0.80;;;;;;;12.71;48.89;101863.20;110674;1212;138692;-65
2023/05/18 09:40:49;;;;;;;3.00;0.80;;;;;;;12.71;48.93;101863.89;110725;1212;97657;-64
2023/05/18 09:43:18;;;;;;;4.50;1.20;;;;;;;12.89;49.15;101863.66;110823;1208;97593;-64
2023/05/18 09:45:47;;;;;;;2.20;0.80;;;;;;;12.97;48.88;101862.30;110720;1208;138917;-63
2023/05/18 09:48:13;;;;;;;3.80;0.70;;;;;;;12.95;49.02;101862.57;110865;1208;97681;-62
2023/05/18 09:50:39;;;;;;;2.90;0.70;;;;;;;12.99;49.17;101860.27;110643;1212;138465;-62
2023/05/18 09:53:08;;;;;;;4.80;0.60;;;;;;;13.07;49.21;101862.11;110898;1211;97575;-62
2023/05/18 09:55:44;;;;;;;3.10;0.90;;;;;;;13.14;49.14;101859.91;110824;1212;97598;-62
2023/05/18 09:58:10;;;;;;;1.10;0.50;;;;;;;13.15;49.10;101856.46;110902;1212;97703;-63
2023/05/18 10:00:59;;;;;;;3.70;1.10;;;;;;;13.09;49.15;101861.69;110840;1210;97690;-62
2023/05/18 10:03:25;;;;;;;5.40;0.80;;;;;;;13.20;49.18;101864.57;110664;1212;140438;-62
2023/05/18 10:05:50;;;;;;;2.10;0.80;;;;;;;13.28;49.17;101858.34;110739;1212;97717;-62
2023/05/18 10:08:17;;;;;;;9.70;1.70;;;;;;;13.40;49.15;101860.10;110662;1212;137839;-62
2023/05/18 10:10:47;;;;;;;9.10;0.90;;;;;;;13.54;49.19;101858.13;110727;1208;97665;-62
2023/05/18 10:13:18;;;;;;;2.60;0.90;;;;;;;13.70;49.16;101859.54;110943;1208;111272;-62
2023/05/18 10:15:53;;;;;;;1.70;1.10;;;;;;;13.78;48.91;101858.16;110883;1208;140035;-62
2023/05/18 10:18:24;;;;;;;4.40;0.80;;;;;;;13.70;48.66;101862.23;111293;1208;107910;-62
2023/05/18 10:20:51;;;;;;;4.50;1.20;;;;;;;13.58;48.62;101862.30;110595;1209;140574;-64
2023/05/18 10:23:21;;;;;;;3.50;1.00;;;;;;;13.49;48.39;101860.48;110885;1211;97730;-62
2023/05/18 10:25:48;;;;;;;2.80;1.10;;;;;;;13.45;48.60;101858.29;110584;1211;138588;-62
2023/05/18 10:28:26;;;;;;;3.00;1.00;;;;;;;13.58;48.83;101859.27;110701;1208;98714;-62
2023/05/18 10:30:56;;;;;;;2.60;0.70;;;;;;;13.83;48.98;101854.01;111103;1208;107441;-62
2023/05/18 10:33:23;;;;;;;3.10;1.00;;;;;;;14.13;48.88;101851.25;110851;1212;139920;-62
2023/05/18 10:35:49;;;;;;;4.30;1.30;;;;;;;14.44;48.81;101854.54;111161;1208;98110;-63
2023/05/18 10:38:19;;;;;;;5.90;1.70;;;;;;;14.70;48.86;101849.54;110936;1212;138934;-63
2023/05/18 10:40:47;;;;;;;2.20;1.20;;;;;;;14.92;48.81;101846.23;111218;1209;101220;-62
2023/05/18 10:43:15;;;;;;;3.30;1.00;;;;;;;15.14;48.68;101847.84;111070;1212;108039;-62
2023/05/18 10:45:45;;;;;;;6.60;1.00;;;;;;;15.27;48.70;101846.35;110807;1212;138541;-62
2023/05/18 10:48:12;;;;;;;2.20;0.70;;;;;;;15.31;48.31;101846.91;110826;1212;97720;-62
2023/05/18 10:50:39;;;;;;;2.90;1.40;;;;;;;15.18;47.76;101847.11;110817;1210;139657;-65
2023/05/18 10:53:05;;;;;;;2.80;1.20;;;;;;;15.23;48.23;101844.36;111071;1212;99020;-63
2023/05/18 10:55:31;;;;;;;3.60;0.80;;;;;;;15.42;48.03;101839.94;111072;1208;97646;-62
2023/05/18 10:58:04;;;;;;;1.70;0.80;;;;;;;15.62;48.13;101844.45;110889;1212;137861;-64
2023/05/18 11:00:33;;;;;;;4.70;0.70;;;;;;;15.88;48.20;101840.38;110973;1208;111324;-62
2023/05/18 11:03:00;;;;;;;3.90;1.10;;;;;;;16.13;48.16;101840.95;110878;1212;137787;-62
2023/05/18 11:05:26;;;;;;;1.90;0.90;;;;;;;16.35;48.06;101845.02;110976;1212;97690;-63
2023/05/18 11:08:00;;;;;;;3.60;1.00;;;;;;;16.48;47.83;101837.27;110897;1212;139853;-63
2023/05/18 11:10:41;;;;;;;4.40;1.10;;;;;;;16.67;47.98;101831.70;111136;1208;99076;-63
2023/05/18 11:13:08;;;;;;;3.60;1.00;;;;;;;16.91;47.85;101832.14;110952;1212;111725;-61
2023/05/18 11:15:51;;;;;;;3.20;1.10;;;;;;;16.83;46.42;101837.95;110850;1208;139503;-61
2023/05/18 11:18:16;;;;;;;4.30;1.10;;;;;;;16.25;46.25;101847.44;111097;1208;108005;-62